WMSA/SZB METAR and TAF weather

Enter ICAO airport designator
Station Type Date Time Source
WMSA METAR 2022/01/26 08:00 UTC NOAA

WMSA 260800Z 28008KT 240V300 9999 FEW017CB 33/25 Q1008


Station Type Date Time Source
WMSA Decoded METAR 2022/01/26 08:00 UTC NOAA

Subang/Sultan Abdul Aziz Shah Airport, Malaysia (WMSA) 03-07N 101-32E
Jan 26, 2022 - 03:00 AM EST / 2022.01.26 0800 UTC
Wind: from the W (280 degrees) at 9 MPH (8 KT) (direction variable):0
Visibility: greater than 7 mile(s):0
Sky conditions: mostly clear
Weather: Cumulonimbus clouds observed
Temperature: 91 F (33 C)
Heat index: 103.5 F (39.7 C):1
Dew Point: 77 F (25 C)
Relative Humidity: 62%
Pressure (altimeter): 29.77 in. Hg (1008 hPa)
ob: WMSA 260800Z 28008KT 240V300 9999 FEW017CB 33/25 Q1008
cycle: 8

Station Type Date Time Source
WMSA TAF 2022/01/26 06:10 UTC NOAA

TAF WMSA 260500Z 2606/2706 24006KT 9999 SCT018 PROB40
TEMPO 2607/2610 4000 TSRA FEW017CB

Example: see airport list